Tropical Cyclones
[Index]
Main Index Home Page Stock Weather Photos Extreme Storms Discussion Storm News and Storm Chasing Reports Tropical Cyclones / Hurricanes / Typhoons Weather Data and Links Wild Fires / Bushfires Weather Observation Techniques Weather Picture Catalogue Tornado Pictures and Reports Stock Video Footage and DVDs for sale
Season 1973-1974 Tropical Cyclone ALICE Track Map
Season 1973-1974 Summaries: [BoM-AU] [JTWC-AU] [JTWC-SIO] [JTWC-SPAC] [JTWC-SH]
<<- Previous TC | JTWC 1973-1974 Season | Next TC ->>

click for intensity scale information  Lat/long Grid: Show Hide

 Date Labels: Show Hide

Joint Typhoon Warning Centre Cyclone Data

Name: ALICE
Number: 870 / 7432

21 Mar 1974 00:00 UTC to 29 Mar 1974 12:00 UTC

    date/time    lat    long     hPa   cat  kts
1974-03-21 00   21.7   153.0                              
1974-03-21 06   22.4   154.0                              
1974-03-21 12   23.4   155.0                              
1974-03-21 18   24.7   156.0                              
1974-03-22 00   26.0   157.0                              
1974-03-22 06   26.7   157.8                              
1974-03-22 12   27.3   158.5                              
1974-03-22 18   28.2   159.2                              
1974-03-23 00   29.0   159.9                              
1974-03-23 06   29.6   160.4                              
1974-03-23 12   30.2   160.7                              
1974-03-23 18   30.9   160.8                              
1974-03-24 00   31.6   160.9                              
1974-03-24 06   32.2   160.9                              
1974-03-24 12   32.8   161.0                              
1974-03-24 18   33.4   161.0                              
1974-03-25 00   34.0   161.1                              
1974-03-25 06   34.4   161.3                              
1974-03-25 12   34.7   161.5                              
1974-03-25 18   35.2   161.5                              
1974-03-26 00   35.6   161.5                              
1974-03-26 06   35.6   161.4                              
1974-03-26 12   35.7   161.2                              
1974-03-26 18   35.7   160.9                              
1974-03-27 00   35.8   160.7                              
1974-03-27 06   35.7   160.5                              
1974-03-27 12   35.6   160.3                              
1974-03-27 18   35.5   160.1                              
1974-03-28 00   35.5   159.9                              
1974-03-28 06   36.0   159.5                              
1974-03-28 12   36.6   159.0                              
1974-03-28 18   37.2   158.9                              
1974-03-29 00   37.8   158.9                              
1974-03-29 06   38.4   158.7                              
1974-03-29 12   39.1   158.4                              
Winds are 1-min average.

Tropical cyclone tracks developed by Michael Bath using data from the Joint Typhoon Warning Centre Best Tracks and Google Maps.


[Australian Severe Weather index] [Copyright Notice] [Email Contacts] [Search This Site] [Privacy Policy]
Document: tropical_cyclone_alice.htm Updated: 18 September 2016